createdAt,value
2022-07-25T00:00:14.844Z,52.60
2022-07-25T00:05:19.242Z,52.70
2022-07-25T00:10:22.335Z,52.80
2022-07-25T00:15:26.743Z,52.80
2022-07-25T00:20:29.780Z,52.90
2022-07-25T00:25:33.141Z,52.80
2022-07-25T00:30:37.990Z,52.90
2022-07-25T00:35:41.044Z,52.80
2022-07-25T00:40:44.157Z,52.80
2022-07-25T00:45:48.585Z,52.80
2022-07-25T00:50:51.687Z,52.70
2022-07-25T00:55:55.381Z,52.60
2022-07-25T01:01:00.394Z,52.50
2022-07-25T01:06:03.931Z,52.50
2022-07-25T01:11:07.433Z,52.60
2022-07-25T01:16:11.857Z,52.60
2022-07-25T01:21:16.308Z,52.50
2022-07-25T01:26:19.385Z,52.50
2022-07-25T01:31:22.501Z,52.50
2022-07-25T01:36:27.039Z,52.40
2022-07-25T01:41:30.167Z,52.40
2022-07-25T01:46:33.392Z,52.40
2022-07-25T01:51:37.848Z,52.30
2022-07-25T01:56:44.736Z,52.40
2022-07-25T02:01:50.106Z,52.40
2022-07-25T02:06:54.550Z,53.00
2022-07-25T02:11:57.660Z,52.40
2022-07-25T02:17:00.840Z,52.40
2022-07-25T02:22:05.657Z,52.50
2022-07-25T02:27:08.764Z,52.50
2022-07-25T02:32:11.787Z,52.50
2022-07-25T02:37:16.259Z,52.50
2022-07-25T02:42:19.262Z,52.60
2022-07-25T02:47:22.313Z,52.50
2022-07-25T02:52:26.759Z,52.50
2022-07-25T02:57:29.811Z,52.50
2022-07-25T03:02:33.042Z,53.10
2022-07-25T03:07:37.715Z,52.50
2022-07-25T03:12:41.560Z,52.50
2022-07-25T03:17:44.635Z,52.60
2022-07-25T03:22:49.846Z,52.60
2022-07-25T03:27:52.863Z,52.60
2022-07-25T03:32:56.043Z,52.40
2022-07-25T03:38:00.459Z,52.60
2022-07-25T03:43:03.528Z,53.20
2022-07-25T03:48:06.967Z,54.00
2022-07-25T03:53:11.366Z,54.70
2022-07-25T03:58:14.427Z,55.00
2022-07-25T04:03:17.511Z,55.40
2022-07-25T04:08:21.945Z,55.80
2022-07-25T04:13:25.031Z,56.30
2022-07-25T04:18:28.801Z,56.20
2022-07-25T04:23:33.447Z,56.40
2022-07-25T04:28:36.489Z,56.20
2022-07-25T04:33:39.624Z,55.90
2022-07-25T04:38:44.100Z,55.50
2022-07-25T04:43:48.954Z,55.30
2022-07-25T04:48:52.565Z,55.90
2022-07-25T04:53:57.025Z,55.00
2022-07-25T04:59:06.416Z,54.60
2022-07-25T05:04:10.351Z,54.40
2022-07-25T05:09:15.033Z,54.10
2022-07-25T05:14:18.488Z,53.90
2022-07-25T05:19:23.919Z,53.70
2022-07-25T05:24:28.321Z,53.60
2022-07-25T05:29:31.791Z,53.40
2022-07-25T05:34:34.878Z,53.20
2022-07-25T05:39:40.331Z,53.10
2022-07-25T05:44:43.371Z,53.00
2022-07-25T05:49:46.419Z,52.90
2022-07-25T05:54:51.372Z,52.90
2022-07-25T05:59:54.550Z,52.80
2022-07-25T06:04:57.562Z,52.80
2022-07-25T06:10:01.963Z,52.70
2022-07-25T06:15:05.672Z,52.80
2022-07-25T06:20:09.482Z,52.70
2022-07-25T06:25:14.051Z,52.50
2022-07-25T06:30:20.078Z,52.30
2022-07-25T06:35:23.707Z,52.30
2022-07-25T06:40:28.515Z,52.20
2022-07-25T06:45:31.633Z,52.30
2022-07-25T06:50:34.683Z,52.40
2022-07-25T06:55:39.341Z,52.40
2022-07-25T07:00:42.512Z,52.50
2022-07-25T07:05:45.612Z,52.50
2022-07-25T07:10:50.073Z,52.50
2022-07-25T07:15:53.484Z,52.60
2022-07-25T07:20:56.578Z,52.60
2022-07-25T07:26:01.054Z,52.70
2022-07-25T07:31:16.166Z,52.70
2022-07-25T07:36:20.556Z,52.70
2022-07-25T07:41:25.039Z,52.70
2022-07-25T07:46:28.265Z,52.70
2022-07-25T07:51:31.526Z,52.60
2022-07-25T07:56:36.019Z,52.70
2022-07-25T08:01:39.211Z,53.10
2022-07-25T08:06:43.229Z,53.40
2022-07-25T08:11:47.652Z,53.50
2022-07-25T08:16:52.670Z,53.60
2022-07-25T08:21:55.969Z,53.70
2022-07-25T08:27:00.412Z,53.80
2022-07-25T08:32:03.451Z,53.90
2022-07-25T08:37:06.500Z,53.90
2022-07-25T08:42:11.349Z,54.00
2022-07-25T08:47:15.777Z,54.00
2022-07-25T08:52:19.575Z,54.00
2022-07-25T08:57:23.998Z,54.10
2022-07-25T09:02:28.251Z,54.20
2022-07-25T09:07:33.672Z,54.30
2022-07-25T09:12:38.159Z,54.30
2022-07-25T09:17:51.212Z,54.40
2022-07-25T09:22:54.264Z,54.50
2022-07-25T09:28:14.748Z,54.50
2022-07-25T09:33:17.789Z,54.70
2022-07-25T09:38:21.702Z,54.70
2022-07-25T09:43:37.492Z,54.80
2022-07-25T09:48:41.661Z,54.90
2022-07-25T09:53:44.871Z,55.00
2022-07-25T09:58:49.369Z,55.00
2022-07-25T10:03:54.025Z,55.10
2022-07-25T10:08:57.884Z,55.20
2022-07-25T10:14:11.936Z,55.40
2022-07-25T10:19:15.316Z,55.50
2022-07-25T10:24:18.399Z,55.50
2022-07-25T10:29:22.814Z,55.60
2022-07-25T10:34:31.692Z,55.60
2022-07-25T10:39:40.100Z,55.60
2022-07-25T10:44:46.560Z,55.70
2022-07-25T10:50:22.237Z,55.60
2022-07-25T10:55:24.227Z,55.60
2022-07-25T11:00:28.996Z,55.70
2022-07-25T11:05:32.047Z,55.60
2022-07-25T11:10:36.336Z,55.70
2022-07-25T11:15:40.914Z,55.70
2022-07-25T11:20:44.029Z,55.70
2022-07-25T11:25:47.064Z,55.70
2022-07-25T11:30:51.545Z,55.70
2022-07-25T11:35:56.507Z,55.70
2022-07-25T11:41:00.022Z,55.70
2022-07-25T11:46:06.615Z,55.50
2022-07-25T11:51:18.634Z,55.50
2022-07-25T12:01:48.839Z,55.40
2022-07-25T12:06:51.961Z,55.40
2022-07-25T12:12:04.649Z,55.30
2022-07-25T12:17:09.099Z,55.20
2022-07-25T12:22:12.195Z,55.10
2022-07-25T12:27:15.243Z,55.00
2022-07-25T12:32:19.611Z,55.00
2022-07-25T12:37:22.689Z,54.90
2022-07-25T12:42:26.112Z,54.80
2022-07-25T12:47:30.511Z,54.70
2022-07-25T12:52:33.618Z,54.70
2022-07-25T12:57:37.631Z,54.60
2022-07-25T13:02:42.168Z,54.60
2022-07-25T13:07:45.513Z,54.50
2022-07-25T13:12:48.986Z,54.90
2022-07-25T13:17:53.487Z,54.20
2022-07-25T13:22:56.595Z,54.10
2022-07-25T13:27:59.614Z,54.00
2022-07-25T13:33:04.056Z,53.90
2022-07-25T13:38:07.102Z,53.90
2022-07-25T13:43:10.332Z,53.90
2022-07-25T13:48:31.661Z,53.90
2022-07-25T13:53:34.942Z,54.00
2022-07-25T13:58:38.176Z,53.90
2022-07-25T14:03:42.758Z,53.90
2022-07-25T14:08:45.871Z,54.00
2022-07-25T14:13:49.137Z,53.90
2022-07-25T14:18:54.917Z,53.70
2022-07-25T14:23:59.305Z,53.70
2022-07-25T14:29:02.756Z,53.60
2022-07-25T14:34:07.532Z,53.50
2022-07-25T14:39:10.897Z,53.60
2022-07-25T14:44:14.123Z,53.50
2022-07-25T14:49:18.650Z,53.30
2022-07-25T14:54:22.204Z,53.60
2022-07-25T14:59:25.531Z,53.70
2022-07-25T15:04:29.984Z,53.50
2022-07-25T15:09:33.076Z,53.70
2022-07-25T15:14:36.723Z,53.80
2022-07-25T15:19:41.134Z,53.70
2022-07-25T15:25:21.416Z,53.60
2022-07-25T15:30:08.460Z,53.60
2022-07-25T15:35:12.935Z,53.70
2022-07-25T15:40:16.018Z,53.60
2022-07-25T15:45:36.267Z,53.50
2022-07-25T15:50:42.874Z,53.30
2022-07-25T15:55:45.900Z,53.40
2022-07-25T16:00:49.031Z,53.60
2022-07-25T16:05:53.950Z,53.50
2022-07-25T16:10:56.985Z,53.60
2022-07-25T16:16:00.051Z,53.70
2022-07-25T16:21:04.644Z,53.60
2022-07-25T16:26:08.701Z,53.60
2022-07-25T16:31:11.926Z,53.60
2022-07-25T16:36:16.368Z,53.60
2022-07-25T16:41:19.381Z,53.60
2022-07-25T16:46:26.840Z,53.60
2022-07-25T16:51:36.824Z,53.50
2022-07-25T16:56:40.352Z,53.40
2022-07-25T17:01:46.394Z,53.40
2022-07-25T17:06:50.936Z,53.50
2022-07-25T17:11:53.988Z,53.50
2022-07-25T17:16:57.061Z,53.40
2022-07-25T17:22:01.508Z,53.30
2022-07-25T17:27:05.283Z,53.80
2022-07-25T17:32:08.452Z,53.20
2022-07-25T17:37:13.288Z,53.30
2022-07-25T17:42:22.129Z,53.20
2022-07-25T17:47:25.319Z,53.30
2022-07-25T17:52:29.690Z,53.10
2022-07-25T17:57:33.023Z,52.80
2022-07-25T18:02:36.231Z,52.70
2022-07-25T18:07:45.169Z,52.80
2022-07-25T18:12:48.493Z,52.90
2022-07-25T18:17:52.838Z,53.10
2022-07-25T18:22:58.605Z,53.10
2022-07-25T18:28:02.153Z,52.70
2022-07-25T18:33:05.266Z,52.40
2022-07-25T18:38:11.637Z,51.80
2022-07-25T18:43:14.720Z,50.40
2022-07-25T18:48:19.231Z,49.10
2022-07-25T18:53:23.611Z,48.80
2022-07-25T18:58:26.795Z,48.80
2022-07-25T19:03:29.900Z,48.20
2022-07-25T19:08:34.312Z,48.10
2022-07-25T19:13:49.441Z,48.30
2022-07-25T19:18:53.446Z,48.00
2022-07-25T19:23:57.848Z,48.50
2022-07-25T19:29:00.889Z,48.30
2022-07-25T19:34:04.086Z,48.40
2022-07-25T19:39:08.973Z,47.50
2022-07-25T19:44:12.016Z,47.20
2022-07-25T19:49:15.390Z,47.70
2022-07-25T19:54:19.854Z,47.80
2022-07-25T19:59:22.891Z,48.20
2022-07-25T20:04:25.958Z,48.20
2022-07-25T20:09:30.479Z,49.00
2022-07-25T20:14:33.787Z,49.30
2022-07-25T20:19:37.123Z,49.90
2022-07-25T20:24:41.596Z,50.10
2022-07-25T20:29:44.851Z,49.90
2022-07-25T20:34:48.250Z,50.00
2022-07-25T20:39:52.670Z,49.90
2022-07-25T20:44:57.680Z,50.00
2022-07-25T20:50:00.759Z,50.00
2022-07-25T20:55:06.767Z,50.60
2022-07-25T21:00:11.647Z,50.40
2022-07-25T21:05:14.727Z,50.40
2022-07-25T21:10:19.235Z,50.40
2022-07-25T21:15:22.354Z,49.80
2022-07-25T21:20:25.408Z,50.40
2022-07-25T21:25:31.807Z,50.30
2022-07-25T21:30:36.352Z,50.50
2022-07-25T21:35:49.388Z,51.30
2022-07-25T21:40:58.436Z,52.60
2022-07-25T21:46:01.501Z,53.10
2022-07-25T21:51:07.601Z,54.20
2022-07-25T21:56:12.254Z,54.90
2022-07-25T22:01:15.366Z,55.10
2022-07-25T22:06:19.249Z,55.50
2022-07-25T22:11:42.521Z,55.60
2022-07-25T22:16:47.302Z,55.60
2022-07-25T22:21:50.904Z,55.60
2022-07-25T22:26:55.341Z,55.60
2022-07-25T22:31:58.837Z,55.80
2022-07-25T22:37:01.992Z,56.00
2022-07-25T22:42:06.799Z,56.20
2022-07-25T22:47:09.822Z,56.30
2022-07-25T22:52:13.572Z,56.20
2022-07-25T22:57:18.003Z,56.40
2022-07-25T23:02:21.067Z,56.40
2022-07-25T23:07:24.081Z,56.50
2022-07-25T23:12:28.557Z,56.50
2022-07-25T23:17:31.576Z,56.50
2022-07-25T23:22:34.598Z,56.40
2022-07-25T23:27:39.604Z,56.50
2022-07-25T23:32:42.686Z,56.50
2022-07-25T23:37:45.717Z,56.50
2022-07-25T23:42:50.133Z,56.60
2022-07-25T23:47:53.356Z,56.90
2022-07-25T23:52:56.409Z,57.20
2022-07-25T23:58:00.813Z,57.50
